Details From YAYE - Ayers Rock
To YCBP - Coober Pedy
Flight Number -
Tags generated
Created
Modified
Stats Distance 308 nm / 570 km
Max Altitude 35,000 ft / 10,668 m
Waypoints 5
Social Downloads 1
Likes 0
Share VATSIM

Download

Looking for another format? Having issues loading an existing format? Contact us
Advertisement - Login to hide

Notes

Basic altitude profile: - Ascent Rate: 2500ft/min - Ascent Speed: 250kts - Cruise Altitude: 35000ft - Cruise Speed: 420kts - Descent Rate: 1500ft/min - Descent Speed: 250kts Options: - Use NATs: no - Use PACOTS: no - Use low airways: yes - Use high airways: no

Route

YAYE AYE T29 VIRUV YCBP

ID Type Via Altitude Latitude Longitude Leg Dist Tot Dist Heading (true) Name
O YAYE APT - 0 ft / 0 m -25.18556˚ 130.97664˚ - 0 nm - Ayers Rock
AYE NDB - 200 ft / 61 m -25.17278˚ 130.97472˚ 0 nm 0 nm 352° / 352° AYERS ROCK NDB-DME
ARENI FIX T29 (AWY-LO) 35,000 ft / 10,668 m -26.93056˚ 132.59917˚ 137 nm 137 nm 141° / 140° -
VIRUV FIX T29 (AWY-LO) 17,000 ft / 5,182 m -28.95194˚ 134.55750˚ 159 nm 297 nm 140° / 139° -
O YCBP APT - 0 ft / 0 m -29.03991˚ 134.72144˚ 10 nm 307 nm 122° / 121° Coober Pedy

Altitude Profile

Advertisement - Login to hide

Weather


0- 5 10 15 20 25 30 35+ Temperature / ° C

Clouds and Precipitation
Forecast for 2017-12-11 06:00 UTC. Updated an hour ago

Ground ~20,000 ft ~40,000 ft Winds

YAYE

Details ICAO YAYE (AYQ)
Name Ayers Rock
Region Australia
Timezone Australia/Darwin (UTC+9.5)
Stats Elevation 1,625 ft / 495 m (AMSL)
Location -25.185555° 130.976642°
Runways 1
Magnetic Variation 3.931° E

METAR

YAYE 110600Z AUTO 21006KT 180V240 9999 // NCD 36/M04 Q1014

Decode

TAF

Not found

Departure Runways

ID Width Length Bearing (true) Bearing (mag) Surface Threshold Offset Overrun Length
13 98 ft / 30 m 8,526 ft / 2,599 m 129.70° 125.77° Asphalt 0 ft / 0 m 0 ft / 0 m
31 98 ft / 30 m 8,526 ft / 2,599 m 309.70° 305.77° Asphalt 0 ft / 0 m 0 ft / 0 m

YCBP

Details ICAO YCBP (CPD)
Name Coober Pedy
Region Australia
Timezone Australia/Adelaide (UTC+10.5)
Stats Elevation 739 ft / 225 m (AMSL)
Location -29.039915° 134.721436°
Runways 2
Magnetic Variation 5.481° E

METAR

YCBP 110600Z AUTO 23006KT 180V250 9999 // NCD 37/00 Q1014

Decode

TAF

Not found

Destination Runways

ID Width Length Bearing (true) Bearing (mag) Surface Threshold Offset Overrun Length
04 49 ft / 15 m 4,688 ft / 1,429 m 48.90° 43.42° Asphalt 0 ft / 0 m 0 ft / 0 m
14 164 ft / 50 m 3,143 ft / 958 m 150.00° 144.52° Unknown 0 ft / 0 m 0 ft / 0 m
22 49 ft / 15 m 4,688 ft / 1,429 m 228.90° 223.42° Asphalt 0 ft / 0 m 0 ft / 0 m
32 164 ft / 50 m 3,143 ft / 958 m 330.00° 324.52° Unknown 0 ft / 0 m 0 ft / 0 m

Popular Alternatives